Time;durP1;ratioP1;P1;durP2;ratioP2;P2;SDS_P1;SDS_P2;PMS_P1;PMS_P2;Temp;Humidity;BMP_temperature;BMP_pressure;BME280_temperature;BME280_humidity;BME280_pressure;Samples;Min_cycle;Max_cycle;Signal;HPM_P1;HPM_P2
2023/01/07 00:02:10;;;;;;;1.07;0.70;;;;;;;;;;5053412;28;20032;-62
2023/01/07 00:04:36;;;;;;;0.90;0.80;;;;;;;;;;5053984;28;20021;-62
2023/01/07 00:07:03;;;;;;;1.07;0.70;;;;;;;;;;5052612;28;20492;-62
2023/01/07 00:09:30;;;;;;;0.70;0.40;;;;;;;;;;5048070;28;20119;-62
2023/01/07 00:11:56;;;;;;;0.57;0.43;;;;;;;;;;5047402;28;20049;-62
2023/01/07 00:14:23;;;;;;;1.60;0.60;;;;;;;;;;5048332;28;20454;-62
2023/01/07 00:16:50;;;;;;;0.50;0.50;;;;;;;;;;5046725;28;20151;-63
2023/01/07 00:19:17;;;;;;;2.53;0.60;;;;;;;;;;5053517;28;20033;-63
2023/01/07 00:21:44;;;;;;;0.80;0.47;;;;;;;;;;5051729;28;20472;-63
2023/01/07 00:24:11;;;;;;;1.87;0.57;;;;;;;;;;5053125;28;20052;-62
2023/01/07 00:26:38;;;;;;;0.87;0.50;;;;;;;;;;5053373;28;20025;-62
2023/01/07 00:29:05;;;;;;;0.40;0.40;;;;;;;;;;5053575;28;20040;-63
2023/01/07 00:31:33;;;;;;;0.73;0.30;;;;;;;;;;5047515;28;20028;-63
2023/01/07 00:36:28;;;;;;;0.83;0.60;;;;;;;;;;5047844;28;20025;-62
2023/01/07 00:38:56;;;;;;;2.07;0.70;;;;;;;;;;5047688;28;20056;-62
2023/01/07 00:41:23;;;;;;;3.20;1.07;;;;;;;;;;5050518;28;20064;-63
2023/01/07 00:43:50;;;;;;;0.53;0.37;;;;;;;;;;5051562;28;20032;-63
2023/01/07 00:46:17;;;;;;;3.23;1.00;;;;;;;;;;5053329;28;20483;-62
2023/01/07 00:48:46;;;;;;;1.50;0.83;;;;;;;;;;5052920;28;20028;-62
2023/01/07 00:51:14;;;;;;;0.30;0.20;;;;;;;;;;5052709;28;20032;-63
2023/01/07 00:53:41;;;;;;;0.20;0.20;;;;;;;;;;5047337;28;20060;-63
2023/01/07 00:56:09;;;;;;;0.20;0.17;;;;;;;;;;5047200;28;20021;-62
2023/01/07 00:58:36;;;;;;;0.47;0.40;;;;;;;;;;5047539;28;20068;-63
2023/01/07 01:01:03;;;;;;;0.50;0.43;;;;;;;;;;5047190;28;20064;-62
2023/01/07 01:03:30;;;;;;;0.43;0.30;;;;;;;;;;5051534;28;20104;-62
2023/01/07 01:06:07;;;;;;;0.50;0.40;;;;;;;;;;5053018;28;20061;-62
2023/01/07 01:08:34;;;;;;;0.53;0.43;;;;;;;;;;5052624;28;20017;-62
2023/01/07 01:11:04;;;;;;;0.30;0.27;;;;;;;;;;5052340;28;20078;-62
2023/01/07 01:13:31;;;;;;;0.50;0.50;;;;;;;;;;5052420;28;20051;-62
2023/01/07 01:15:57;;;;;;;0.73;0.60;;;;;;;;;;5047111;28;20502;-63
2023/01/07 01:18:24;;;;;;;1.07;0.50;;;;;;;;;;5047120;28;20082;-62
2023/01/07 01:20:51;;;;;;;1.40;0.90;;;;;;;;;;5047051;28;20021;-63
2023/01/07 01:23:17;;;;;;;0.70;0.70;;;;;;;;;;5046687;28;20033;-63
2023/01/07 01:25:44;;;;;;;1.67;0.80;;;;;;;;;;5051481;28;20441;-62
2023/01/07 01:28:11;;;;;;;0.77;0.70;;;;;;;;;;5049756;28;20021;-63
2023/01/07 01:30:37;;;;;;;0.67;0.50;;;;;;;;;;5051572;28;20072;-62
2023/01/07 01:33:04;;;;;;;4.40;0.73;;;;;;;;;;5052030;28;20025;-62
2023/01/07 01:35:31;;;;;;;1.77;1.07;;;;;;;;;;5051966;28;20471;-63
2023/01/07 01:38:00;;;;;;;1.70;1.13;;;;;;;;;;5047092;28;20190;-62
2023/01/07 01:40:29;;;;;;;1.77;1.27;;;;;;;;;;5045154;28;20063;-62
2023/01/07 01:42:56;;;;;;;3.60;1.30;;;;;;;;;;5046099;28;20123;-62
2023/01/07 01:45:23;;;;;;;1.47;1.07;;;;;;;;;;5046800;28;20391;-62
2023/01/07 01:47:53;;;;;;;1.93;1.10;;;;;;;;;;5050032;28;20021;-63
2023/01/07 01:50:26;;;;;;;1.63;1.27;;;;;;;;;;5051577;28;20032;-62
2023/01/07 01:52:56;;;;;;;2.23;1.20;;;;;;;;;;5050957;28;20029;-62
2023/01/07 01:55:25;;;;;;;1.07;0.77;;;;;;;;;;5049777;28;20040;-63
2023/01/07 01:57:54;;;;;;;0.73;0.67;;;;;;;;;;5051736;28;20043;-62
2023/01/07 02:00:21;;;;;;;1.10;0.97;;;;;;;;;;5045991;28;20041;-62
2023/01/07 02:02:52;;;;;;;1.47;0.97;;;;;;;;;;5046333;28;20033;-62
2023/01/07 02:05:18;;;;;;;0.93;0.70;;;;;;;;;;5046678;28;20055;-63
2023/01/07 02:07:45;;;;;;;0.83;0.50;;;;;;;;;;5046563;28;20044;-62
2023/01/07 02:10:14;;;;;;;0.40;0.40;;;;;;;;;;5050167;28;20356;-63
2023/01/07 02:12:57;;;;;;;0.70;0.70;;;;;;;;;;5051521;28;20120;-63
2023/01/07 02:15:41;;;;;;;1.13;0.70;;;;;;;;;;5050454;28;20060;-63
2023/01/07 02:18:17;;;;;;;0.52;0.45;;;;;;;;;;5031582;28;20112;-63
2023/01/07 02:20:52;;;;;;;0.50;0.50;;;;;;;;;;5031475;28;20455;-63
2023/01/07 02:23:25;;;;;;;1.37;0.80;;;;;;;;;;5026653;28;20029;-63
2023/01/07 02:26:10;;;;;;;0.40;0.40;;;;;;;;;;5044629;28;20029;-63
2023/01/07 02:28:52;;;;;;;0.30;0.30;;;;;;;;;;5046029;28;20334;-63
2023/01/07 02:31:37;;;;;;;0.40;0.40;;;;;;;;;;5047397;28;20403;-63
2023/01/07 02:34:18;;;;;;;0.45;0.40;;;;;;;;;;5051555;28;20032;-63
2023/01/07 02:36:49;;;;;;;1.20;0.67;;;;;;;;;;5051833;28;20075;-62
2023/01/07 02:39:28;;;;;;;1.43;0.87;;;;;;;;;;5051533;28;20029;-63
2023/01/07 02:41:55;;;;;;;1.30;1.00;;;;;;;;;;5050614;28;20025;-63
2023/01/07 02:44:27;;;;;;;4.00;1.10;;;;;;;;;;5045966;28;20029;-63
2023/01/07 02:47:00;;;;;;;1.43;1.20;;;;;;;;;;5045156;28;20029;-62
2023/01/07 02:49:27;;;;;;;4.03;2.53;;;;;;;;;;5045662;28;20083;-63
2023/01/07 02:51:54;;;;;;;8.13;2.37;;;;;;;;;;5046060;28;20025;-63
2023/01/07 02:54:24;;;;;;;2.83;1.90;;;;;;;;;;5049951;28;20063;-63
2023/01/07 02:56:51;;;;;;;2.97;2.07;;;;;;;;;;5051109;28;20021;-63
2023/01/07 02:59:18;;;;;;;0.60;0.60;;;;;;;;;;5051272;28;20041;-63
2023/01/07 03:01:44;;;;;;;1.23;0.70;;;;;;;;;;5050637;28;20060;-62
2023/01/07 03:04:25;;;;;;;1.20;1.03;;;;;;;;;;5050613;28;20028;-63
2023/01/07 03:07:07;;;;;;;1.83;0.97;;;;;;;;;;5048736;28;20025;-63
2023/01/07 03:09:40;;;;;;;2.23;1.30;;;;;;;;;;5048679;28;20444;-63
2023/01/07 03:12:11;;;;;;;4.23;2.07;;;;;;;;;;5048769;28;20029;-63
2023/01/07 03:14:59;;;;;;;9.80;3.17;;;;;;;;;;5049013;28;20059;-63
2023/01/07 03:17:37;;;;;;;3.47;1.93;;;;;;;;;;5052906;28;20021;-63
2023/01/07 03:20:04;;;;;;;6.87;2.83;;;;;;;;;;5048656;28;20024;-63
2023/01/07 03:22:32;;;;;;;3.53;2.50;;;;;;;;;;5054095;28;20029;-63
2023/01/07 03:24:59;;;;;;;3.90;2.03;;;;;;;;;;5053560;28;20053;-63
2023/01/07 03:27:27;;;;;;;3.57;2.47;;;;;;;;;;5054116;28;20078;-63
2023/01/07 03:29:54;;;;;;;3.33;2.37;;;;;;;;;;5048914;28;20035;-62
2023/01/07 03:32:24;;;;;;;2.23;1.93;;;;;;;;;;5049520;28;20056;-63
2023/01/07 03:34:51;;;;;;;4.73;2.77;;;;;;;;;;5049076;28;20029;-63
2023/01/07 03:37:21;;;;;;;3.90;1.80;;;;;;;;;;5049024;28;20025;-63
2023/01/07 03:39:48;;;;;;;2.87;1.50;;;;;;;;;;5054495;28;20064;-63
2023/01/07 03:45:00;;;;;;;2.75;1.90;;;;;;;;;;5054353;28;20090;-63
2023/01/07 03:47:27;;;;;;;8.93;3.10;;;;;;;;;;5054197;28;20032;-62
2023/01/07 03:49:54;;;;;;;8.90;2.60;;;;;;;;;;5053080;28;20112;-62
2023/01/07 03:52:21;;;;;;;3.30;2.20;;;;;;;;;;5048759;28;20054;-62
2023/01/07 03:54:48;;;;;;;1.23;1.00;;;;;;;;;;5048502;28;20440;-63
2023/01/07 03:57:14;;;;;;;8.57;2.80;;;;;;;;;;5047675;28;20029;-63
2023/01/07 03:59:41;;;;;;;1.37;1.13;;;;;;;;;;5049028;28;20378;-63
2023/01/07 04:02:08;;;;;;;9.90;2.47;;;;;;;;;;5053975;28;20032;-62
2023/01/07 04:04:34;;;;;;;4.40;2.07;;;;;;;;;;5053717;28;20033;-63
2023/01/07 04:07:01;;;;;;;3.70;2.57;;;;;;;;;;5054036;28;20017;-62
2023/01/07 04:09:28;;;;;;;5.77;2.43;;;;;;;;;;5053598;28;20025;-63
2023/01/07 04:11:55;;;;;;;6.07;2.13;;;;;;;;;;5052986;28;20025;-62
2023/01/07 04:14:21;;;;;;;2.53;1.70;;;;;;;;;;5048470;28;20028;-62
2023/01/07 04:16:50;;;;;;;4.30;2.23;;;;;;;;;;5048319;28;20084;-62
2023/01/07 04:19:17;;;;;;;5.23;2.33;;;;;;;;;;5047980;28;20037;-62
2023/01/07 04:21:44;;;;;;;26.00;3.10;;;;;;;;;;5047983;28;20124;-62
2023/01/07 04:24:10;;;;;;;2.60;1.97;;;;;;;;;;5053281;28;20029;-62
2023/01/07 04:26:37;;;;;;;1.13;0.93;;;;;;;;;;5053745;28;20017;-62
2023/01/07 04:29:04;;;;;;;1.47;1.10;;;;;;;;;;5053419;28;20032;-62
2023/01/07 04:31:31;;;;;;;3.63;1.80;;;;;;;;;;5053698;28;20837;-62
2023/01/07 04:33:57;;;;;;;5.30;1.50;;;;;;;;;;5052751;28;20036;-62
2023/01/07 04:36:24;;;;;;;0.87;0.73;;;;;;;;;;5047256;28;20541;-62
2023/01/07 04:38:51;;;;;;;3.17;1.37;;;;;;;;;;5048038;28;20143;-62
2023/01/07 04:41:17;;;;;;;2.17;1.47;;;;;;;;;;5048090;28;20096;-62
2023/01/07 04:43:44;;;;;;;2.23;1.40;;;;;;;;;;5047614;28;20461;-62
2023/01/07 04:46:11;;;;;;;0.77;0.70;;;;;;;;;;5052508;28;20025;-62
2023/01/07 04:48:38;;;;;;;2.73;1.77;;;;;;;;;;5053214;28;20544;-62
2023/01/07 04:51:04;;;;;;;1.70;1.07;;;;;;;;;;5052517;28;20075;-61
2023/01/07 04:53:31;;;;;;;2.63;1.77;;;;;;;;;;5048991;28;20033;-62
2023/01/07 04:55:58;;;;;;;2.03;1.50;;;;;;;;;;5052587;28;20029;-60
2023/01/07 04:58:24;;;;;;;1.60;1.43;;;;;;;;;;5047931;28;20124;-61
2023/01/07 05:00:56;;;;;;;2.07;1.17;;;;;;;;;;5047165;28;20102;-62
2023/01/07 05:03:23;;;;;;;3.70;2.10;;;;;;;;;;5047977;28;20502;-62
2023/01/07 05:05:49;;;;;;;2.60;2.07;;;;;;;;;;5041772;28;20024;-62
2023/01/07 05:08:16;;;;;;;2.23;1.57;;;;;;;;;;5051940;28;20055;-62
2023/01/07 05:10:43;;;;;;;2.10;1.40;;;;;;;;;;5052937;28;20025;-62
2023/01/07 05:13:14;;;;;;;1.23;0.77;;;;;;;;;;5052822;28;20429;-62
2023/01/07 05:15:41;;;;;;;2.30;1.40;;;;;;;;;;5052295;28;20106;-62
2023/01/07 05:18:07;;;;;;;4.10;2.20;;;;;;;;;;5052566;28;20033;-62
2023/01/07 05:20:34;;;;;;;8.97;2.97;;;;;;;;;;5047588;28;20108;-62
2023/01/07 05:23:01;;;;;;;2.00;1.47;;;;;;;;;;5047285;28;20025;-62
2023/01/07 05:25:28;;;;;;;1.17;0.93;;;;;;;;;;5046790;28;20031;-62
2023/01/07 05:27:54;;;;;;;1.50;1.30;;;;;;;;;;5046720;28;20017;-62
2023/01/07 05:30:21;;;;;;;3.07;2.17;;;;;;;;;;5051671;28;20379;-62
2023/01/07 05:32:48;;;;;;;1.60;1.13;;;;;;;;;;5052251;28;20020;-62
2023/01/07 05:35:14;;;;;;;1.23;1.00;;;;;;;;;;5052202;28;20312;-62
2023/01/07 05:37:41;;;;;;;2.33;1.57;;;;;;;;;;5052443;28;20033;-63
2023/01/07 05:40:08;;;;;;;3.53;2.17;;;;;;;;;;5052322;28;20108;-62
2023/01/07 05:42:35;;;;;;;3.87;1.67;;;;;;;;;;5047784;28;20024;-62
2023/01/07 05:45:02;;;;;;;2.23;1.50;;;;;;;;;;5046669;28;20033;-63
2023/01/07 05:47:28;;;;;;;1.60;1.30;;;;;;;;;;5046447;28;20061;-62
2023/01/07 05:49:55;;;;;;;1.97;1.57;;;;;;;;;;5046818;28;20029;-62
2023/01/07 05:52:21;;;;;;;2.80;1.93;;;;;;;;;;5050438;28;20036;-62
2023/01/07 05:54:48;;;;;;;1.70;1.40;;;;;;;;;;5052122;28;20459;-62
2023/01/07 05:57:15;;;;;;;1.83;1.37;;;;;;;;;;5051946;28;20021;-62
2023/01/07 05:59:41;;;;;;;2.47;1.37;;;;;;;;;;5051861;28;20037;-62
2023/01/07 06:02:08;;;;;;;1.87;1.40;;;;;;;;;;5052015;28;20111;-62
2023/01/07 06:04:35;;;;;;;1.57;1.30;;;;;;;;;;5047838;28;20021;-62
2023/01/07 06:07:01;;;;;;;2.70;2.00;;;;;;;;;;5046304;28;20760;-62
2023/01/07 06:09:31;;;;;;;6.30;2.27;;;;;;;;;;5046647;28;20444;-62
2023/01/07 06:11:58;;;;;;;1.93;1.50;;;;;;;;;;5046711;28;20802;-62
2023/01/07 06:14:25;;;;;;;2.03;1.40;;;;;;;;;;5049527;28;20029;-62
2023/01/07 06:16:51;;;;;;;2.20;1.47;;;;;;;;;;5051618;28;20028;-62
2023/01/07 06:19:18;;;;;;;1.97;1.37;;;;;;;;;;5051331;28;20033;-62
2023/01/07 06:21:45;;;;;;;1.87;1.43;;;;;;;;;;5052012;28;20025;-63
2023/01/07 06:24:11;;;;;;;2.50;1.70;;;;;;;;;;5052059;28;20488;-62
2023/01/07 06:26:38;;;;;;;2.20;1.70;;;;;;;;;;5048409;28;20056;-62
2023/01/07 06:29:06;;;;;;;3.63;1.63;;;;;;;;;;5046497;28;20021;-62
2023/01/07 06:31:32;;;;;;;1.00;0.90;;;;;;;;;;5046349;28;20315;-62
2023/01/07 06:33:59;;;;;;;1.77;1.37;;;;;;;;;;5046464;28;20032;-62
2023/01/07 06:36:26;;;;;;;2.93;1.97;;;;;;;;;;5048323;28;20262;-62
2023/01/07 06:38:52;;;;;;;3.03;1.43;;;;;;;;;;5051763;28;20293;-62
2023/01/07 06:41:19;;;;;;;1.87;1.43;;;;;;;;;;5054246;28;20267;-62
2023/01/07 06:43:46;;;;;;;3.17;2.10;;;;;;;;;;5055576;28;20342;-62
2023/01/07 06:46:12;;;;;;;3.20;2.40;;;;;;;;;;5055313;28;20266;-62
2023/01/07 06:48:39;;;;;;;2.53;1.83;;;;;;;;;;5052773;28;20258;-62
2023/01/07 06:51:06;;;;;;;2.33;1.70;;;;;;;;;;5049927;28;20658;-62
2023/01/07 06:53:33;;;;;;;1.97;1.57;;;;;;;;;;5049834;28;20254;-62
2023/01/07 06:55:59;;;;;;;4.57;1.87;;;;;;;;;;5049754;28;20278;-62
2023/01/07 06:58:26;;;;;;;2.03;1.30;;;;;;;;;;5052035;28;20289;-62
2023/01/07 07:00:53;;;;;;;1.97;1.10;;;;;;;;;;5055303;28;20277;-62
2023/01/07 07:03:19;;;;;;;2.33;1.73;;;;;;;;;;5055229;28;20254;-62
2023/01/07 07:05:46;;;;;;;2.00;1.70;;;;;;;;;;5053691;28;20670;-62
2023/01/07 07:08:13;;;;;;;1.27;1.17;;;;;;;;;;5054809;28;20716;-62
2023/01/07 07:10:40;;;;;;;3.07;1.93;;;;;;;;;;5052560;28;20254;-62
2023/01/07 07:13:07;;;;;;;2.23;1.73;;;;;;;;;;5049590;28;20254;-63
2023/01/07 07:15:33;;;;;;;2.27;1.70;;;;;;;;;;5049314;28;20274;-62
2023/01/07 07:18:00;;;;;;;2.33;1.13;;;;;;;;;;5049378;28;20293;-62
2023/01/07 07:20:27;;;;;;;3.13;2.00;;;;;;;;;;5051312;28;20277;-62
2023/01/07 07:22:53;;;;;;;1.67;1.40;;;;;;;;;;5055191;28;20659;-62
2023/01/07 07:25:20;;;;;;;2.30;1.83;;;;;;;;;;5053974;28;20246;-62
2023/01/07 07:27:47;;;;;;;2.63;1.27;;;;;;;;;;5054871;28;20289;-62
2023/01/07 07:30:14;;;;;;;1.23;1.13;;;;;;;;;;5054747;28;20258;-62
2023/01/07 07:32:41;;;;;;;3.83;2.57;;;;;;;;;;5052554;28;20637;-62
2023/01/07 07:35:08;;;;;;;2.97;1.50;;;;;;;;;;5049271;28;20377;-62
2023/01/07 07:37:35;;;;;;;1.57;1.27;;;;;;;;;;5048903;28;20327;-62
2023/01/07 07:40:02;;;;;;;1.10;0.80;;;;;;;;;;5048912;28;20772;-62
2023/01/07 07:42:29;;;;;;;1.00;0.83;;;;;;;;;;5050465;28;20261;-62
2023/01/07 07:44:56;;;;;;;3.30;1.93;;;;;;;;;;5054492;28;20265;-62
2023/01/07 07:47:22;;;;;;;2.53;1.67;;;;;;;;;;5054068;28;20357;-62
2023/01/07 07:49:50;;;;;;;7.70;1.53;;;;;;;;;;5054346;28;20250;-62
2023/01/07 07:52:17;;;;;;;0.93;0.73;;;;;;;;;;5054027;28;20288;-62
2023/01/07 07:54:43;;;;;;;1.60;0.80;;;;;;;;;;5052939;28;20308;-62
2023/01/07 07:57:10;;;;;;;1.40;1.00;;;;;;;;;;5048022;28;20771;-62
2023/01/07 07:59:37;;;;;;;1.93;1.53;;;;;;;;;;5048879;28;20371;-62
2023/01/07 08:02:03;;;;;;;2.07;1.47;;;;;;;;;;5048679;28;20269;-62
2023/01/07 08:04:33;;;;;;;1.60;1.10;;;;;;;;;;5049426;28;20266;-62
2023/01/07 08:07:00;;;;;;;1.03;0.87;;;;;;;;;;5053810;28;20320;-62
2023/01/07 08:09:27;;;;;;;0.87;0.73;;;;;;;;;;5053875;28;20274;-62
2023/01/07 08:11:54;;;;;;;0.70;0.70;;;;;;;;;;5053563;28;20612;-62
2023/01/07 08:14:21;;;;;;;2.47;1.40;;;;;;;;;;5053699;28;20269;-62
2023/01/07 08:16:47;;;;;;;1.50;1.10;;;;;;;;;;5052456;28;20266;-62
2023/01/07 08:19:14;;;;;;;1.43;1.00;;;;;;;;;;5048266;28;20331;-62
2023/01/07 08:21:41;;;;;;;1.60;1.17;;;;;;;;;;5048542;28;20344;-62
2023/01/07 08:24:08;;;;;;;13.13;1.53;;;;;;;;;;5048287;28;20266;-62
2023/01/07 08:26:34;;;;;;;0.70;0.70;;;;;;;;;;5048337;28;20270;-62
2023/01/07 08:29:01;;;;;;;0.93;0.90;;;;;;;;;;5053771;28;20257;-62
2023/01/07 08:31:28;;;;;;;1.07;0.90;;;;;;;;;;5053602;28;20255;-62
2023/01/07 08:33:54;;;;;;;1.47;1.20;;;;;;;;;;5053607;28;20261;-62
2023/01/07 08:36:21;;;;;;;1.30;1.10;;;;;;;;;;5053237;28;20842;-62
2023/01/07 08:38:51;;;;;;;3.43;1.70;;;;;;;;;;5052696;28;20285;-62
2023/01/07 08:41:18;;;;;;;1.83;1.37;;;;;;;;;;5047619;28;20266;-62
2023/01/07 08:43:45;;;;;;;1.30;1.10;;;;;;;;;;5047750;28;20265;-62
2023/01/07 08:46:11;;;;;;;1.83;1.40;;;;;;;;;;5047864;28;20675;-62
2023/01/07 08:48:39;;;;;;;0.60;0.60;;;;;;;;;;5047649;28;20262;-62
2023/01/07 08:51:06;;;;;;;0.80;0.70;;;;;;;;;;5053036;28;20593;-61
2023/01/07 08:53:33;;;;;;;0.80;0.60;;;;;;;;;;5053196;28;20261;-62
2023/01/07 08:56:00;;;;;;;1.13;0.87;;;;;;;;;;5052755;28;20742;-62
2023/01/07 08:58:26;;;;;;;1.10;0.87;;;;;;;;;;5052590;28;20278;-62
2023/01/07 09:00:53;;;;;;;7.73;1.10;;;;;;;;;;5052950;28;20744;-62
2023/01/07 09:03:20;;;;;;;1.20;0.97;;;;;;;;;;5046778;28;20341;-62
2023/01/07 09:05:47;;;;;;;1.33;0.93;;;;;;;;;;5047183;28;20776;-62
2023/01/07 09:08:13;;;;;;;0.80;0.80;;;;;;;;;;5047556;28;20609;-62
2023/01/07 09:10:40;;;;;;;1.03;0.73;;;;;;;;;;5047375;28;20261;-62
2023/01/07 09:13:07;;;;;;;0.87;0.83;;;;;;;;;;5052186;28;20596;-61
2023/01/07 09:15:34;;;;;;;1.63;1.17;;;;;;;;;;5052169;28;20709;-62
2023/01/07 09:18:02;;;;;;;1.07;0.77;;;;;;;;;;5052621;28;20286;-62
2023/01/07 09:20:29;;;;;;;0.97;0.87;;;;;;;;;;5052661;28;20586;-61
2023/01/07 09:22:56;;;;;;;1.07;0.97;;;;;;;;;;5052450;28;20262;-62
2023/01/07 09:25:22;;;;;;;0.57;0.50;;;;;;;;;;5047398;28;20262;-61
2023/01/07 09:27:49;;;;;;;0.23;0.23;;;;;;;;;;5046680;28;20266;-63
2023/01/07 09:30:16;;;;;;;0.70;0.70;;;;;;;;;;5047030;28;20329;-62
2023/01/07 09:32:43;;;;;;;0.67;0.67;;;;;;;;;;5047007;28;20273;-62
2023/01/07 09:35:10;;;;;;;3.70;1.57;;;;;;;;;;5051873;28;20262;-62
2023/01/07 09:37:37;;;;;;;1.50;1.30;;;;;;;;;;5052056;28;20671;-62
2023/01/07 09:40:04;;;;;;;0.77;0.77;;;;;;;;;;5052247;28;20268;-62
2023/01/07 09:42:39;;;;;;;1.80;1.17;;;;;;;;;;5052386;28;20257;-61
2023/01/07 09:45:13;;;;;;;0.97;0.70;;;;;;;;;;5052412;28;20258;-62
2023/01/07 09:47:43;;;;;;;0.52;0.52;;;;;;;;;;5046580;28;20632;-62
2023/01/07 09:50:14;;;;;;;0.83;0.63;;;;;;;;;;5046550;28;20049;-61
2023/01/07 09:52:47;;;;;;;0.60;0.50;;;;;;;;;;5046956;28;20250;-62
2023/01/07 09:55:34;;;;;;;1.40;0.93;;;;;;;;;;5046747;28;20284;-62
2023/01/07 09:58:01;;;;;;;0.30;0.30;;;;;;;;;;5051946;28;20282;-62
2023/01/07 10:00:28;;;;;;;0.53;0.53;;;;;;;;;;5051786;28;20270;-62
2023/01/07 10:02:55;;;;;;;0.73;0.67;;;;;;;;;;5052100;28;20250;-62
2023/01/07 10:05:29;;;;;;;2.77;1.60;;;;;;;;;;5051672;28;20265;-61
2023/01/07 10:08:12;;;;;;;5.25;1.52;;;;;;;;;;5050872;28;20266;-62
2023/01/07 10:10:47;;;;;;;1.40;0.93;;;;;;;;;;5046222;28;20554;-62
2023/01/07 10:13:32;;;;;;;1.05;0.95;;;;;;;;;;5046045;28;20258;-62
2023/01/07 10:15:59;;;;;;;0.93;0.88;;;;;;;;;;5050679;28;20564;-62
2023/01/07 10:18:35;;;;;;;1.77;1.27;;;;;;;;;;5052836;28;20029;-62
2023/01/07 10:21:11;;;;;;;0.70;0.70;;;;;;;;;;5055859;28;20748;-61
2023/01/07 10:23:40;;;;;;;2.07;1.43;;;;;;;;;;5056083;28;20716;-62
2023/01/07 10:26:14;;;;;;;2.20;1.43;;;;;;;;;;5055975;28;20257;-62
2023/01/07 10:28:47;;;;;;;0.70;0.70;;;;;;;;;;5056117;28;20250;-62
2023/01/07 10:31:19;;;;;;;10.47;1.20;;;;;;;;;;5051680;28;20270;-60
2023/01/07 10:33:47;;;;;;;1.47;0.80;;;;;;;;;;5050432;28;20301;-60
2023/01/07 10:36:25;;;;;;;0.40;0.40;;;;;;;;;;5050322;28;20266;-60
2023/01/07 10:39:07;;;;;;;2.07;1.30;;;;;;;;;;5050171;28;20640;-60
2023/01/07 10:41:45;;;;;;;1.30;0.70;;;;;;;;;;5034262;28;20259;-59
2023/01/07 10:44:27;;;;;;;1.23;1.00;;;;;;;;;;5035679;28;20676;-60
2023/01/07 10:47:13;;;;;;;0.20;0.20;;;;;;;;;;5035734;28;20334;-60
2023/01/07 10:49:46;;;;;;;0.43;0.40;;;;;;;;;;5040390;28;20315;-60
2023/01/07 10:52:18;;;;;;;1.10;0.97;;;;;;;;;;5054350;28;20140;-60
2023/01/07 10:54:44;;;;;;;0.40;0.40;;;;;;;;;;5050033;28;20277;-59
2023/01/07 10:57:19;;;;;;;0.70;0.70;;;;;;;;;;5050006;28;20317;-60
2023/01/07 10:59:49;;;;;;;0.43;0.43;;;;;;;;;;5049488;28;20290;-60
2023/01/07 11:02:20;;;;;;;0.63;0.53;;;;;;;;;;5050741;28;20364;-60
2023/01/07 11:04:46;;;;;;;1.47;1.00;;;;;;;;;;5055111;28;20763;-59
2023/01/07 11:07:22;;;;;;;0.93;0.60;;;;;;;;;;5055121;28;20262;-59
2023/01/07 11:09:48;;;;;;;0.63;0.57;;;;;;;;;;5054589;28;20802;-59
2023/01/07 11:12:23;;;;;;;0.93;0.47;;;;;;;;;;5055233;28;20025;-59
2023/01/07 11:14:50;;;;;;;0.40;0.40;;;;;;;;;;5052731;28;20270;-59
2023/01/07 11:17:35;;;;;;;0.50;0.50;;;;;;;;;;5049608;28;20109;-59
2023/01/07 11:20:03;;;;;;;0.70;0.60;;;;;;;;;;5048780;28;20675;-60
2023/01/07 11:22:31;;;;;;;6.80;1.03;;;;;;;;;;5049221;28;20498;-59
2023/01/07 11:24:58;;;;;;;0.63;0.50;;;;;;;;;;5051787;28;20258;-59
2023/01/07 11:27:26;;;;;;;1.30;0.60;;;;;;;;;;5054106;28;20834;-59
2023/01/07 11:29:59;;;;;;;0.77;0.63;;;;;;;;;;5054498;28;20345;-59
2023/01/07 11:32:33;;;;;;;0.60;0.50;;;;;;;;;;5054883;28;20604;-60
2023/01/07 11:35:00;;;;;;;3.07;0.97;;;;;;;;;;5054815;28;20278;-59
2023/01/07 11:37:34;;;;;;;0.20;0.20;;;;;;;;;;5051654;28;20262;-59
2023/01/07 11:40:02;;;;;;;0.40;0.33;;;;;;;;;;5048762;28;20265;-59
2023/01/07 11:42:38;;;;;;;0.60;0.60;;;;;;;;;;5049044;28;20357;-59
2023/01/07 11:45:12;;;;;;;0.60;0.60;;;;;;;;;;5048766;28;20611;-59
2023/01/07 11:47:45;;;;;;;1.17;0.98;;;;;;;;;;5052560;28;20313;-59
2023/01/07 11:50:35;;;;;;;0.67;0.60;;;;;;;;;;5054144;28;20375;-59
2023/01/07 11:53:10;;;;;;;0.40;0.40;;;;;;;;;;5051002;28;20274;-59
2023/01/07 11:55:37;;;;;;;0.30;0.30;;;;;;;;;;5054265;28;20696;-59
2023/01/07 11:58:06;;;;;;;0.97;0.87;;;;;;;;;;5054287;28;20821;-59
2023/01/07 12:00:33;;;;;;;0.80;0.80;;;;;;;;;;5048572;28;20277;-59
2023/01/07 12:03:12;;;;;;;0.40;0.40;;;;;;;;;;5048760;28;20303;-59
2023/01/07 12:05:43;;;;;;;1.80;1.03;;;;;;;;;;5048549;28;20312;-59
2023/01/07 12:08:19;;;;;;;2.73;0.93;;;;;;;;;;5048660;28;20277;-59
2023/01/07 12:10:45;;;;;;;1.67;1.03;;;;;;;;;;5053867;28;20266;-60
2023/01/07 12:13:22;;;;;;;1.30;1.10;;;;;;;;;;5053884;28;20813;-59
2023/01/07 12:15:54;;;;;;;1.00;0.90;;;;;;;;;;5054104;28;20285;-59
2023/01/07 12:18:32;;;;;;;0.93;0.77;;;;;;;;;;5053916;28;20786;-59
2023/01/07 12:21:04;;;;;;;0.77;0.67;;;;;;;;;;5051823;28;20270;-60
2023/01/07 12:23:31;;;;;;;0.43;0.43;;;;;;;;;;5047888;28;20286;-59
2023/01/07 12:25:57;;;;;;;1.10;0.80;;;;;;;;;;5048365;28;20257;-60
2023/01/07 12:28:47;;;;;;;0.77;0.77;;;;;;;;;;5048197;28;20632;-59
2023/01/07 12:31:14;;;;;;;1.60;1.17;;;;;;;;;;5027932;28;20270;-59
2023/01/07 12:33:43;;;;;;;1.97;1.10;;;;;;;;;;5033770;28;20583;-60
2023/01/07 12:36:13;;;;;;;0.60;0.50;;;;;;;;;;5033727;28;20282;-59
2023/01/07 12:38:49;;;;;;;2.17;1.00;;;;;;;;;;5032515;28;20282;-60
2023/01/07 12:41:19;;;;;;;0.47;0.47;;;;;;;;;;5048489;28;20274;-60
2023/01/07 12:43:46;;;;;;;1.83;1.27;;;;;;;;;;5050186;28;20250;-59
2023/01/07 12:46:14;;;;;;;1.00;0.60;;;;;;;;;;5047794;28;20262;-60
2023/01/07 12:49:01;;;;;;;1.20;0.70;;;;;;;;;;5047835;28;20614;-59
2023/01/07 12:51:30;;;;;;;0.40;0.40;;;;;;;;;;5047674;28;20305;-60
2023/01/07 12:54:01;;;;;;;0.57;0.50;;;;;;;;;;5051175;28;20289;-60
2023/01/07 12:56:34;;;;;;;0.40;0.40;;;;;;;;;;5052650;28;20258;-60
2023/01/07 12:59:01;;;;;;;0.70;0.70;;;;;;;;;;5053081;28;20294;-60
2023/01/07 13:01:29;;;;;;;0.83;0.70;;;;;;;;;;5052553;28;20278;-59
2023/01/07 13:04:06;;;;;;;1.77;1.33;;;;;;;;;;5052601;28;20257;-59
2023/01/07 13:06:33;;;;;;;1.30;0.93;;;;;;;;;;5047964;28;20274;-59
2023/01/07 13:09:23;;;;;;;5.37;1.17;;;;;;;;;;5047249;28;20257;-59
2023/01/07 13:14:42;;;;;;;1.03;0.70;;;;;;;;;;5047443;28;20697;-60
2023/01/07 13:17:15;;;;;;;0.70;0.70;;;;;;;;;;5051323;28;20622;-59
2023/01/07 13:19:41;;;;;;;1.40;1.03;;;;;;;;;;5052566;28;20286;-60
2023/01/07 13:22:31;;;;;;;1.90;1.33;;;;;;;;;;5052676;28;20266;-59
2023/01/07 13:24:58;;;;;;;2.13;1.80;;;;;;;;;;5049514;28;20286;-60
2023/01/07 13:27:53;;;;;;;4.40;2.23;;;;;;;;;;5050357;28;20257;-60
2023/01/07 13:30:26;;;;;;;2.58;1.83;;;;;;;;;;5047012;28;20576;-59
2023/01/07 13:32:53;;;;;;;6.50;3.83;;;;;;;;;;5047008;28;20036;-59
2023/01/07 13:35:33;;;;;;;2.93;2.23;;;;;;;;;;5046913;28;20302;-59
2023/01/07 13:38:13;;;;;;;1.97;1.67;;;;;;;;;;5049521;28;20339;-59
2023/01/07 13:40:58;;;;;;;3.90;1.97;;;;;;;;;;5052075;28;20345;-59
2023/01/07 13:43:39;;;;;;;3.28;2.42;;;;;;;;;;5052451;28;20262;-59
2023/01/07 13:46:13;;;;;;;6.87;2.27;;;;;;;;;;5052309;28;20029;-59
2023/01/07 13:48:41;;;;;;;4.63;1.52;;;;;;;;;;5051695;28;20880;-59
2023/01/07 13:51:08;;;;;;;1.23;0.97;;;;;;;;;;5046731;28;20025;-60
2023/01/07 13:53:40;;;;;;;7.00;3.30;;;;;;;;;;5046843;28;20321;-60
2023/01/07 13:56:16;;;;;;;1.87;1.57;;;;;;;;;;5045963;28;20293;-60
2023/01/07 13:58:43;;;;;;;3.00;1.50;;;;;;;;;;5046007;28;20305;-60
2023/01/07 14:01:16;;;;;;;3.07;1.73;;;;;;;;;;5051599;28;20679;-60
2023/01/07 14:03:43;;;;;;;3.33;1.50;;;;;;;;;;5052123;28;20344;-60
2023/01/07 14:06:22;;;;;;;11.73;2.07;;;;;;;;;;5052133;28;20262;-60
2023/01/07 14:09:12;;;;;;;1.17;1.07;;;;;;;;;;5051799;28;20654;-60
2023/01/07 14:12:01;;;;;;;2.47;1.27;;;;;;;;;;5049450;28;20694;-62
2023/01/07 14:14:34;;;;;;;1.03;0.93;;;;;;;;;;5045994;28;20261;-62
2023/01/07 14:17:21;;;;;;;1.70;1.23;;;;;;;;;;5046253;28;20355;-62
2023/01/07 14:19:58;;;;;;;0.83;0.83;;;;;;;;;;5046573;28;20293;-62
2023/01/07 14:22:43;;;;;;;2.50;1.70;;;;;;;;;;5050083;28;20254;-62
2023/01/07 14:25:10;;;;;;;1.52;0.90;;;;;;;;;;5032191;28;20258;-62
2023/01/07 14:27:56;;;;;;;2.90;1.77;;;;;;;;;;5032084;28;20053;-62
2023/01/07 14:30:32;;;;;;;1.92;1.55;;;;;;;;;;5037297;28;20790;-62
2023/01/07 14:33:03;;;;;;;2.10;1.43;;;;;;;;;;5051817;28;20025;-62
2023/01/07 14:35:33;;;;;;;18.47;3.60;;;;;;;;;;5046103;28;20030;-62
2023/01/07 14:37:59;;;;;;;3.63;2.17;;;;;;;;;;5046032;28;20021;-62
2023/01/07 14:40:28;;;;;;;3.67;2.50;;;;;;;;;;5045884;28;20056;-63
2023/01/07 14:42:55;;;;;;;2.43;1.57;;;;;;;;;;5046016;28;20021;-62
2023/01/07 14:45:37;;;;;;;2.30;1.80;;;;;;;;;;5051023;28;20079;-63
2023/01/07 14:48:09;;;;;;;3.83;2.10;;;;;;;;;;5051806;28;20049;-62
2023/01/07 14:50:40;;;;;;;3.47;1.40;;;;;;;;;;5051606;28;20020;-62
2023/01/07 14:53:17;;;;;;;1.93;1.47;;;;;;;;;;5051517;28;20021;-62
2023/01/07 14:56:02;;;;;;;3.30;1.87;;;;;;;;;;5050009;28;20487;-62
2023/01/07 14:58:29;;;;;;;4.65;2.13;;;;;;;;;;5045991;28;20065;-62
2023/01/07 15:01:05;;;;;;;11.80;3.93;;;;;;;;;;5046454;28;20078;-62
2023/01/07 15:03:46;;;;;;;7.77;2.53;;;;;;;;;;5049246;28;20082;-62
2023/01/07 15:06:13;;;;;;;3.33;2.03;;;;;;;;;;5052026;28;20017;-63
2023/01/07 15:17:11;;;;;;;1.93;1.43;;;;;;;;;;5054628;28;20044;-62